sensor_id;sensor_type;location;lat;lon;timestamp;pressure;altitude;pressure_sealevel;temperature;humidity
65800;BME280;52544;48.116;11.660;2023-02-26T00:01:34;94778.44;;;-0.80;100.00
65800;BME280;52544;48.116;11.660;2023-02-26T00:04:03;94781.63;;;-0.74;100.00
65800;BME280;52544;48.116;11.660;2023-02-26T00:06:32;94785.47;;;-0.82;100.00
65800;BME280;52544;48.116;11.660;2023-02-26T00:08:58;94783.06;;;-0.85;100.00
65800;BME280;52544;48.116;11.660;2023-02-26T00:11:24;94788.25;;;-0.85;100.00
65800;BME280;52544;48.116;11.660;2023-02-26T00:13:50;94792.03;;;-0.74;100.00
65800;BME280;52544;48.116;11.660;2023-02-26T00:16:30;94787.06;;;-0.79;100.00
65800;BME280;52544;48.116;11.660;2023-02-26T00:18:58;94787.38;;;-0.85;100.00
65800;BME280;52544;48.116;11.660;2023-02-26T00:21:25;94793.44;;;-0.85;100.00
65800;BME280;52544;48.116;11.660;2023-02-26T00:23:51;94791.84;;;-0.87;100.00
65800;BME280;52544;48.116;11.660;2023-02-26T00:26:17;94795.84;;;-0.82;100.00
65800;BME280;52544;48.116;11.660;2023-02-26T00:28:43;94794.28;;;-0.84;100.00
65800;BME280;52544;48.116;11.660;2023-02-26T00:31:09;94792.38;;;-0.98;100.00
65800;BME280;52544;48.116;11.660;2023-02-26T00:33:35;94799.09;;;-0.94;100.00
65800;BME280;52544;48.116;11.660;2023-02-26T00:38:56;94804.38;;;-0.95;100.00
65800;BME280;52544;48.116;11.660;2023-02-26T00:41:27;94804.47;;;-0.97;100.00
65800;BME280;52544;48.116;11.660;2023-02-26T00:43:53;94802.56;;;-0.93;100.00
65800;BME280;52544;48.116;11.660;2023-02-26T00:46:37;94801.78;;;-0.95;100.00
65800;BME280;52544;48.116;11.660;2023-02-26T00:52:02;94804.16;;;-0.91;100.00
65800;BME280;52544;48.116;11.660;2023-02-26T00:54:30;94804.78;;;-1.03;100.00
65800;BME280;52544;48.116;11.660;2023-02-26T00:56:57;94805.38;;;-0.98;100.00
65800;BME280;52544;48.116;11.660;2023-02-26T00:59:23;94805.16;;;-0.93;100.00
65800;BME280;52544;48.116;11.660;2023-02-26T01:01:50;94810.16;;;-0.90;100.00
65800;BME280;52544;48.116;11.660;2023-02-26T01:04:19;94807.50;;;-0.89;100.00
65800;BME280;52544;48.116;11.660;2023-02-26T01:06:51;94805.81;;;-0.90;100.00
65800;BME280;52544;48.116;11.660;2023-02-26T01:09:20;94797.69;;;-0.99;100.00
65800;BME280;52544;48.116;11.660;2023-02-26T01:11:49;94815.47;;;-0.92;100.00
65800;BME280;52544;48.116;11.660;2023-02-26T01:14:15;94804.63;;;-1.00;100.00
65800;BME280;52544;48.116;11.660;2023-02-26T01:17:08;94806.75;;;-0.91;100.00
65800;BME280;52544;48.116;11.660;2023-02-26T01:19:53;94802.78;;;-0.98;100.00
65800;BME280;52544;48.116;11.660;2023-02-26T01:22:24;94807.47;;;-1.05;100.00
65800;BME280;52544;48.116;11.660;2023-02-26T01:25:04;94805.56;;;-1.01;100.00
65800;BME280;52544;48.116;11.660;2023-02-26T01:27:31;94811.50;;;-0.99;100.00
65800;BME280;52544;48.116;11.660;2023-02-26T01:29:57;94812.34;;;-0.98;100.00
65800;BME280;52544;48.116;11.660;2023-02-26T01:32:37;94813.34;;;-1.01;100.00
65800;BME280;52544;48.116;11.660;2023-02-26T01:35:19;94805.81;;;-1.06;100.00
65800;BME280;52544;48.116;11.660;2023-02-26T01:38:02;94815.34;;;-1.06;100.00
65800;BME280;52544;48.116;11.660;2023-02-26T01:40:45;94809.63;;;-1.13;100.00
65800;BME280;52544;48.116;11.660;2023-02-26T01:43:56;94819.88;;;-1.10;100.00
65800;BME280;52544;48.116;11.660;2023-02-26T01:49:27;94831.38;;;-1.15;100.00
65800;BME280;52544;48.116;11.660;2023-02-26T01:51:55;94827.22;;;-1.18;100.00
65800;BME280;52544;48.116;11.660;2023-02-26T01:54:28;94823.69;;;-1.17;100.00
65800;BME280;52544;48.116;11.660;2023-02-26T01:57:13;94827.44;;;-1.22;100.00
65800;BME280;52544;48.116;11.660;2023-02-26T01:59:42;94829.13;;;-1.21;100.00
65800;BME280;52544;48.116;11.660;2023-02-26T02:02:11;94831.19;;;-1.28;100.00
65800;BME280;52544;48.116;11.660;2023-02-26T02:04:39;94841.56;;;-1.28;100.00
65800;BME280;52544;48.116;11.660;2023-02-26T02:07:05;94835.94;;;-1.19;100.00
65800;BME280;52544;48.116;11.660;2023-02-26T02:09:31;94838.81;;;-1.25;100.00
65800;BME280;52544;48.116;11.660;2023-02-26T02:26:00;94852.34;;;-1.36;100.00
65800;BME280;52544;48.116;11.660;2023-02-26T02:28:36;94848.69;;;-1.32;100.00
65800;BME280;52544;48.116;11.660;2023-02-26T02:36:38;94864.47;;;-1.36;100.00
65800;BME280;52544;48.116;11.660;2023-02-26T02:39:09;94869.44;;;-1.49;100.00
65800;BME280;52544;48.116;11.660;2023-02-26T02:41:39;94863.81;;;-1.40;100.00
65800;BME280;52544;48.116;11.660;2023-02-26T02:44:09;94867.25;;;-1.57;100.00
65800;BME280;52544;48.116;11.660;2023-02-26T02:46:37;94867.00;;;-1.52;100.00
65800;BME280;52544;48.116;11.660;2023-02-26T02:49:09;94867.06;;;-1.54;100.00
65800;BME280;52544;48.116;11.660;2023-02-26T02:51:54;94874.94;;;-1.55;100.00
65800;BME280;52544;48.116;11.660;2023-02-26T02:54:24;94871.50;;;-1.56;100.00
65800;BME280;52544;48.116;11.660;2023-02-26T02:56:55;94885.63;;;-1.61;100.00
65800;BME280;52544;48.116;11.660;2023-02-26T02:59:28;94881.88;;;-1.56;100.00
65800;BME280;52544;48.116;11.660;2023-02-26T03:04:53;94882.97;;;-1.60;100.00
65800;BME280;52544;48.116;11.660;2023-02-26T03:07:18;94881.19;;;-1.77;100.00
65800;BME280;52544;48.116;11.660;2023-02-26T03:09:44;94880.03;;;-1.71;100.00
65800;BME280;52544;48.116;11.660;2023-02-26T03:12:10;94882.41;;;-1.66;100.00
65800;BME280;52544;48.116;11.660;2023-02-26T03:14:36;94883.47;;;-1.70;100.00
65800;BME280;52544;48.116;11.660;2023-02-26T03:17:11;94893.94;;;-1.72;100.00
65800;BME280;52544;48.116;11.660;2023-02-26T03:19:59;94886.06;;;-1.70;100.00
65800;BME280;52544;48.116;11.660;2023-02-26T03:28:37;94899.69;;;-1.84;100.00
65800;BME280;52544;48.116;11.660;2023-02-26T03:31:09;94903.75;;;-1.79;100.00
65800;BME280;52544;48.116;11.660;2023-02-26T03:33:46;94901.59;;;-1.88;100.00
65800;BME280;52544;48.116;11.660;2023-02-26T03:38:59;94915.25;;;-1.84;100.00
65800;BME280;52544;48.116;11.660;2023-02-26T03:41:38;94917.63;;;-1.80;100.00
65800;BME280;52544;48.116;11.660;2023-02-26T03:44:10;94918.41;;;-1.78;100.00
65800;BME280;52544;48.116;11.660;2023-02-26T03:46:42;94924.66;;;-1.82;100.00
65800;BME280;52544;48.116;11.660;2023-02-26T03:49:12;94922.69;;;-1.77;100.00
65800;BME280;52544;48.116;11.660;2023-02-26T03:51:40;94921.00;;;-1.78;100.00
65800;BME280;52544;48.116;11.660;2023-02-26T03:54:11;94925.50;;;-1.81;100.00
65800;BME280;52544;48.116;11.660;2023-02-26T03:56:42;94938.13;;;-1.73;100.00
65800;BME280;52544;48.116;11.660;2023-02-26T03:59:09;94933.06;;;-1.77;100.00
65800;BME280;52544;48.116;11.660;2023-02-26T04:01:41;94942.03;;;-1.84;100.00
65800;BME280;52544;48.116;11.660;2023-02-26T04:04:17;94938.34;;;-1.97;100.00
65800;BME280;52544;48.116;11.660;2023-02-26T04:06:43;94936.88;;;-2.03;100.00
65800;BME280;52544;48.116;11.660;2023-02-26T04:09:10;94935.56;;;-2.11;100.00
65800;BME280;52544;48.116;11.660;2023-02-26T04:11:36;94939.13;;;-2.14;100.00
65800;BME280;52544;48.116;11.660;2023-02-26T04:14:02;94939.34;;;-2.18;100.00
65800;BME280;52544;48.116;11.660;2023-02-26T04:16:28;94932.13;;;-2.12;100.00
65800;BME280;52544;48.116;11.660;2023-02-26T04:18:53;94940.88;;;-2.14;100.00
65800;BME280;52544;48.116;11.660;2023-02-26T04:21:20;94936.88;;;-2.21;100.00
65800;BME280;52544;48.116;11.660;2023-02-26T04:23:46;94938.50;;;-2.19;100.00
65800;BME280;52544;48.116;11.660;2023-02-26T04:26:12;94942.06;;;-2.21;100.00
65800;BME280;52544;48.116;11.660;2023-02-26T04:28:39;94951.59;;;-2.22;100.00
65800;BME280;52544;48.116;11.660;2023-02-26T04:31:05;94941.22;;;-2.22;99.54
65800;BME280;52544;48.116;11.660;2023-02-26T04:33:31;94951.94;;;-2.30;99.16
65800;BME280;52544;48.116;11.660;2023-02-26T04:35:57;94960.59;;;-2.29;99.86
65800;BME280;52544;48.116;11.660;2023-02-26T04:38:23;94961.69;;;-2.35;100.00
65800;BME280;52544;48.116;11.660;2023-02-26T04:40:49;94960.22;;;-2.40;100.00
65800;BME280;52544;48.116;11.660;2023-02-26T04:43:15;94959.28;;;-2.39;100.00
65800;BME280;52544;48.116;11.660;2023-02-26T04:45:40;94962.94;;;-2.43;100.00
65800;BME280;52544;48.116;11.660;2023-02-26T04:48:05;94963.94;;;-2.46;100.00
65800;BME280;52544;48.116;11.660;2023-02-26T04:50:31;94962.41;;;-2.52;100.00
65800;BME280;52544;48.116;11.660;2023-02-26T04:52:56;94967.47;;;-2.48;100.00
65800;BME280;52544;48.116;11.660;2023-02-26T04:55:22;94971.31;;;-2.57;99.65
65800;BME280;52544;48.116;11.660;2023-02-26T04:57:47;94972.16;;;-2.57;99.69
65800;BME280;52544;48.116;11.660;2023-02-26T05:00:13;94973.91;;;-2.57;99.67
65800;BME280;52544;48.116;11.660;2023-02-26T05:02:39;94982.59;;;-2.58;99.21
65800;BME280;52544;48.116;11.660;2023-02-26T05:05:05;94987.28;;;-2.66;99.01
65800;BME280;52544;48.116;11.660;2023-02-26T05:07:31;94988.44;;;-2.73;99.53
65800;BME280;52544;48.116;11.660;2023-02-26T05:09:56;94987.50;;;-2.72;100.00
65800;BME280;52544;48.116;11.660;2023-02-26T05:12:22;94990.78;;;-2.67;99.88
65800;BME280;52544;48.116;11.660;2023-02-26T05:14:47;94992.97;;;-2.79;99.65
65800;BME280;52544;48.116;11.660;2023-02-26T05:17:13;94998.22;;;-2.80;100.00
65800;BME280;52544;48.116;11.660;2023-02-26T05:19:38;94997.72;;;-2.88;99.72
65800;BME280;52544;48.116;11.660;2023-02-26T05:22:03;95002.16;;;-2.92;99.55
65800;BME280;52544;48.116;11.660;2023-02-26T05:24:29;95007.34;;;-2.92;99.35
65800;BME280;52544;48.116;11.660;2023-02-26T05:26:54;95001.25;;;-2.91;99.70
65800;BME280;52544;48.116;11.660;2023-02-26T05:29:20;95008.06;;;-2.88;99.20
65800;BME280;52544;48.116;11.660;2023-02-26T05:31:45;95012.53;;;-2.92;98.73
65800;BME280;52544;48.116;11.660;2023-02-26T05:34:10;95014.47;;;-2.97;98.38
65800;BME280;52544;48.116;11.660;2023-02-26T05:36:36;95011.34;;;-3.05;98.71
65800;BME280;52544;48.116;11.660;2023-02-26T05:39:02;95009.66;;;-3.06;98.83
65800;BME280;52544;48.116;11.660;2023-02-26T05:41:27;95003.78;;;-3.10;98.49
65800;BME280;52544;48.116;11.660;2023-02-26T05:43:52;95008.06;;;-3.09;98.71
65800;BME280;52544;48.116;11.660;2023-02-26T05:46:18;95005.59;;;-3.12;98.94
65800;BME280;52544;48.116;11.660;2023-02-26T05:48:43;95002.34;;;-3.17;98.65
65800;BME280;52544;48.116;11.660;2023-02-26T05:51:09;94997.88;;;-3.13;98.36
65800;BME280;52544;48.116;11.660;2023-02-26T05:53:34;95002.28;;;-3.15;98.40
65800;BME280;52544;48.116;11.660;2023-02-26T05:56:00;95005.25;;;-3.24;98.68
65800;BME280;52544;48.116;11.660;2023-02-26T05:58:26;95011.81;;;-3.38;98.52
65800;BME280;52544;48.116;11.660;2023-02-26T06:00:51;95010.69;;;-3.31;99.11
65800;BME280;52544;48.116;11.660;2023-02-26T06:03:17;95026.97;;;-3.29;98.61
65800;BME280;52544;48.116;11.660;2023-02-26T06:05:42;95032.94;;;-3.27;99.11
65800;BME280;52544;48.116;11.660;2023-02-26T06:08:08;95045.09;;;-3.29;98.79
65800;BME280;52544;48.116;11.660;2023-02-26T06:10:33;95053.75;;;-3.30;98.93
65800;BME280;52544;48.116;11.660;2023-02-26T06:12:58;95058.47;;;-3.39;99.58
65800;BME280;52544;48.116;11.660;2023-02-26T06:15:24;95070.31;;;-3.34;99.61
65800;BME280;52544;48.116;11.660;2023-02-26T06:17:49;95072.78;;;-3.31;100.00
65800;BME280;52544;48.116;11.660;2023-02-26T06:20:15;95081.19;;;-3.25;99.35
65800;BME280;52544;48.116;11.660;2023-02-26T06:22:40;95078.16;;;-3.15;99.42
65800;BME280;52544;48.116;11.660;2023-02-26T06:25:06;95085.16;;;-3.17;99.90
65800;BME280;52544;48.116;11.660;2023-02-26T06:27:32;95085.09;;;-3.15;99.55
65800;BME280;52544;48.116;11.660;2023-02-26T06:29:57;95080.91;;;-3.18;99.45
65800;BME280;52544;48.116;11.660;2023-02-26T06:32:23;95088.41;;;-3.12;99.23
65800;BME280;52544;48.116;11.660;2023-02-26T06:34:48;95093.69;;;-3.15;98.44
65800;BME280;52544;48.116;11.660;2023-02-26T06:37:14;95090.69;;;-3.04;97.92
65800;BME280;52544;48.116;11.660;2023-02-26T06:39:40;95096.72;;;-3.04;97.84
65800;BME280;52544;48.116;11.660;2023-02-26T06:42:06;95099.59;;;-3.11;97.86
65800;BME280;52544;48.116;11.660;2023-02-26T06:44:31;95105.22;;;-3.22;98.67
65800;BME280;52544;48.116;11.660;2023-02-26T06:46:56;95110.03;;;-3.13;98.36
65800;BME280;52544;48.116;11.660;2023-02-26T06:49:22;95110.97;;;-3.15;98.42
65800;BME280;52544;48.116;11.660;2023-02-26T06:51:47;95124.41;;;-3.28;98.92
65800;BME280;52544;48.116;11.660;2023-02-26T06:54:13;95122.72;;;-3.29;98.63
65800;BME280;52544;48.116;11.660;2023-02-26T06:56:38;95125.28;;;-3.27;98.93
65800;BME280;52544;48.116;11.660;2023-02-26T06:59:03;95125.50;;;-3.11;98.56
65800;BME280;52544;48.116;11.660;2023-02-26T07:01:29;95123.56;;;-3.06;98.24
65800;BME280;52544;48.116;11.660;2023-02-26T07:03:56;95134.63;;;-3.03;98.34
65800;BME280;52544;48.116;11.660;2023-02-26T07:06:22;95145.59;;;-2.96;98.41
65800;BME280;52544;48.116;11.660;2023-02-26T07:08:47;95147.41;;;-2.98;98.64
65800;BME280;52544;48.116;11.660;2023-02-26T07:11:13;95149.81;;;-2.93;99.18
65800;BME280;52544;48.116;11.660;2023-02-26T07:13:39;95146.25;;;-2.91;99.45
65800;BME280;52544;48.116;11.660;2023-02-26T07:16:05;95144.75;;;-2.74;98.48
65800;BME280;52544;48.116;11.660;2023-02-26T07:18:35;95141.91;;;-2.68;97.38
65800;BME280;52544;48.116;11.660;2023-02-26T07:21:00;95146.84;;;-2.62;96.77
65800;BME280;52544;48.116;11.660;2023-02-26T07:23:26;95154.00;;;-2.69;96.31
65800;BME280;52544;48.116;11.660;2023-02-26T07:25:51;95159.81;;;-2.62;95.97
65800;BME280;52544;48.116;11.660;2023-02-26T07:28:17;95165.56;;;-2.56;96.17
65800;BME280;52544;48.116;11.660;2023-02-26T07:30:42;95166.94;;;-2.47;95.36
65800;BME280;52544;48.116;11.660;2023-02-26T07:33:08;95177.06;;;-2.20;95.52
65800;BME280;52544;48.116;11.660;2023-02-26T07:35:34;95172.38;;;-1.92;93.93
65800;BME280;52544;48.116;11.660;2023-02-26T07:37:59;95165.00;;;-2.01;92.23
65800;BME280;52544;48.116;11.660;2023-02-26T07:40:25;95165.59;;;-2.15;91.25
65800;BME280;52544;48.116;11.660;2023-02-26T07:42:50;95158.47;;;-2.10;91.33
65800;BME280;52544;48.116;11.660;2023-02-26T07:45:16;95159.78;;;-2.20;90.39
65800;BME280;52544;48.116;11.660;2023-02-26T07:47:46;95164.22;;;-2.23;90.33
65800;BME280;52544;48.116;11.660;2023-02-26T07:50:12;95173.28;;;-2.34;90.64
65800;BME280;52544;48.116;11.660;2023-02-26T07:52:37;95185.28;;;-2.31;91.60
65800;BME280;52544;48.116;11.660;2023-02-26T07:55:03;95193.97;;;-2.32;92.79
65800;BME280;52544;48.116;11.660;2023-02-26T07:57:28;95196.09;;;-2.21;93.71
65800;BME280;52544;48.116;11.660;2023-02-26T07:59:54;95197.94;;;-2.23;94.40
65800;BME280;52544;48.116;11.660;2023-02-26T08:02:19;95198.19;;;-2.09;94.07
65800;BME280;52544;48.116;11.660;2023-02-26T08:04:45;95203.00;;;-2.20;93.15
65800;BME280;52544;48.116;11.660;2023-02-26T08:07:10;95202.72;;;-2.14;93.71
65800;BME280;52544;48.116;11.660;2023-02-26T08:09:35;95197.63;;;-2.16;93.79
65800;BME280;52544;48.116;11.660;2023-02-26T08:12:01;95196.50;;;-2.10;93.57
65800;BME280;52544;48.116;11.660;2023-02-26T08:14:27;95205.19;;;-2.11;94.17
65800;BME280;52544;48.116;11.660;2023-02-26T08:16:53;95204.41;;;-2.13;93.98
65800;BME280;52544;48.116;11.660;2023-02-26T08:19:18;95218.69;;;-2.03;95.16
65800;BME280;52544;48.116;11.660;2023-02-26T08:21:43;95219.47;;;-2.01;94.20
65800;BME280;52544;48.116;11.660;2023-02-26T08:24:10;95222.69;;;-1.96;94.25
65800;BME280;52544;48.116;11.660;2023-02-26T08:26:36;95233.66;;;-1.89;94.21
65800;BME280;52544;48.116;11.660;2023-02-26T08:29:03;95222.19;;;-1.84;93.62
65800;BME280;52544;48.116;11.660;2023-02-26T08:31:28;95220.22;;;-1.79;92.87
65800;BME280;52544;48.116;11.660;2023-02-26T08:33:54;95228.69;;;-1.73;93.00
65800;BME280;52544;48.116;11.660;2023-02-26T08:36:19;95228.22;;;-1.83;93.06
65800;BME280;52544;48.116;11.660;2023-02-26T08:38:46;95229.25;;;-1.67;92.75
65800;BME280;52544;48.116;11.660;2023-02-26T08:41:11;95235.63;;;-1.74;92.54
65800;BME280;52544;48.116;11.660;2023-02-26T08:43:37;95237.81;;;-1.65;92.92
65800;BME280;52544;48.116;11.660;2023-02-26T08:46:02;95243.63;;;-1.60;92.07
65800;BME280;52544;48.116;11.660;2023-02-26T08:48:28;95254.47;;;-1.70;91.90
65800;BME280;52544;48.116;11.660;2023-02-26T08:50:53;95250.06;;;-1.68;91.42
65800;BME280;52544;48.116;11.660;2023-02-26T08:53:18;95251.66;;;-1.66;90.75
65800;BME280;52544;48.116;11.660;2023-02-26T08:55:48;95255.38;;;-1.71;89.60
65800;BME280;52544;48.116;11.660;2023-02-26T08:58:14;95249.47;;;-1.75;90.80
65800;BME280;52544;48.116;11.660;2023-02-26T09:00:39;95265.34;;;-1.83;90.85
65800;BME280;52544;48.116;11.660;2023-02-26T09:03:05;95256.28;;;-1.72;91.16
65800;BME280;52544;48.116;11.660;2023-02-26T09:05:30;95261.50;;;-1.72;91.50
65800;BME280;52544;48.116;11.660;2023-02-26T09:07:56;95269.06;;;-1.68;91.66
65800;BME280;52544;48.116;11.660;2023-02-26T09:10:21;95278.53;;;-1.67;90.62
65800;BME280;52544;48.116;11.660;2023-02-26T09:12:46;95272.78;;;-1.73;91.33
65800;BME280;52544;48.116;11.660;2023-02-26T09:15:12;95278.84;;;-1.74;90.30
65800;BME280;52544;48.116;11.660;2023-02-26T09:17:39;95281.44;;;-1.74;90.79
65800;BME280;52544;48.116;11.660;2023-02-26T09:20:06;95286.59;;;-1.73;91.76
65800;BME280;52544;48.116;11.660;2023-02-26T09:22:31;95291.81;;;-1.74;92.13
65800;BME280;52544;48.116;11.660;2023-02-26T09:24:57;95298.38;;;-1.66;92.35
65800;BME280;52544;48.116;11.660;2023-02-26T09:27:22;95293.34;;;-1.69;92.86
65800;BME280;52544;48.116;11.660;2023-02-26T09:29:47;95303.00;;;-1.72;93.32
65800;BME280;52544;48.116;11.660;2023-02-26T09:32:14;95301.97;;;-1.48;93.64
65800;BME280;52544;48.116;11.660;2023-02-26T09:34:39;95291.69;;;-1.31;93.13
65800;BME280;52544;48.116;11.660;2023-02-26T09:37:07;95297.84;;;-1.13;92.94
65800;BME280;52544;48.116;11.660;2023-02-26T09:39:33;95304.84;;;-1.15;92.45
65800;BME280;52544;48.116;11.660;2023-02-26T09:44:50;95308.97;;;-0.71;90.62
65800;BME280;52544;48.116;11.660;2023-02-26T09:47:31;95311.06;;;-0.61;88.54
65800;BME280;52544;48.116;11.660;2023-02-26T09:52:44;95304.91;;;-0.58;88.18
65800;BME280;52544;48.116;11.660;2023-02-26T09:55:22;95313.78;;;-0.64;88.23
65800;BME280;52544;48.116;11.660;2023-02-26T09:57:55;95318.66;;;-0.75;87.99
65800;BME280;52544;48.116;11.660;2023-02-26T10:00:40;95325.53;;;-0.93;90.04
65800;BME280;52544;48.116;11.660;2023-02-26T10:08:23;95325.06;;;-1.03;91.20
65800;BME280;52544;48.116;11.660;2023-02-26T10:11:04;95329.16;;;-0.97;92.47
65800;BME280;52544;48.116;11.660;2023-02-26T10:13:45;95329.16;;;-0.97;91.36
65800;BME280;52544;48.116;11.660;2023-02-26T10:16:17;95315.41;;;-0.99;90.71
65800;BME280;52544;48.116;11.660;2023-02-26T10:18:48;95320.03;;;-0.87;91.37
65800;BME280;52544;48.116;11.660;2023-02-26T10:21:49;95322.72;;;-0.88;93.29
65800;BME280;52544;48.116;11.660;2023-02-26T10:24:25;95310.88;;;-0.75;92.91
65800;BME280;52544;48.116;11.660;2023-02-26T10:26:59;95306.56;;;-0.57;91.53
65800;BME280;52544;48.116;11.660;2023-02-26T10:29:44;95312.97;;;-0.45;90.28
65800;BME280;52544;48.116;11.660;2023-02-26T10:32:32;95307.81;;;-0.47;89.47
65800;BME280;52544;48.116;11.660;2023-02-26T10:35:10;95312.75;;;-0.41;89.71
65800;BME280;52544;48.116;11.660;2023-02-26T10:38:00;95312.63;;;-0.38;89.06
65800;BME280;52544;48.116;11.660;2023-02-26T10:40:42;95315.53;;;-0.27;89.88
65800;BME280;52544;48.116;11.660;2023-02-26T10:43:26;95312.31;;;-0.32;88.80
65800;BME280;52544;48.116;11.660;2023-02-26T10:49:01;95306.00;;;-0.45;89.34
65800;BME280;52544;48.116;11.660;2023-02-26T10:51:36;95302.63;;;-0.47;89.33
65800;BME280;52544;48.116;11.660;2023-02-26T10:54:11;95301.25;;;-0.54;91.75
65800;BME280;52544;48.116;11.660;2023-02-26T10:56:39;95293.94;;;-0.46;91.88
65800;BME280;52544;48.116;11.660;2023-02-26T10:59:04;95288.25;;;-0.54;93.28
65800;BME280;52544;48.116;11.660;2023-02-26T11:01:30;95283.22;;;-0.40;93.77
65800;BME280;52544;48.116;11.660;2023-02-26T11:03:59;95283.34;;;-0.24;93.87
65800;BME280;52544;48.116;11.660;2023-02-26T11:06:34;95276.88;;;-0.15;91.19
65800;BME280;52544;48.116;11.660;2023-02-26T11:09:03;95278.41;;;-0.11;90.42
65800;BME280;52544;48.116;11.660;2023-02-26T11:11:45;95274.19;;;-0.14;89.98
65800;BME280;52544;48.116;11.660;2023-02-26T11:14:11;95277.69;;;-0.15;90.54
65800;BME280;52544;48.116;11.660;2023-02-26T11:16:59;95274.50;;;-0.20;90.90
65800;BME280;52544;48.116;11.660;2023-02-26T11:19:29;95269.19;;;-0.18;90.75
65800;BME280;52544;48.116;11.660;2023-02-26T11:21:55;95278.31;;;-0.10;90.33
65800;BME280;52544;48.116;11.660;2023-02-26T11:24:29;95279.94;;;-0.07;90.27
65800;BME280;52544;48.116;11.660;2023-02-26T11:26:57;95280.31;;;0.03;87.70
65800;BME280;52544;48.116;11.660;2023-02-26T11:29:24;95297.19;;;0.13;86.20
65800;BME280;52544;48.116;11.660;2023-02-26T11:31:51;95304.69;;;0.19;85.86
65800;BME280;52544;48.116;11.660;2023-02-26T11:34:21;95306.69;;;0.31;86.10
65800;BME280;52544;48.116;11.660;2023-02-26T11:36:48;95305.59;;;0.18;87.84
65800;BME280;52544;48.116;11.660;2023-02-26T11:39:16;95310.41;;;0.08;91.10
65800;BME280;52544;48.116;11.660;2023-02-26T11:41:44;95314.75;;;0.08;93.39
65800;BME280;52544;48.116;11.660;2023-02-26T11:44:13;95318.84;;;0.13;95.73
65800;BME280;52544;48.116;11.660;2023-02-26T11:46:44;95317.78;;;0.17;97.49
65800;BME280;52544;48.116;11.660;2023-02-26T11:49:12;95312.56;;;0.17;97.34
65800;BME280;52544;48.116;11.660;2023-02-26T11:51:42;95315.31;;;0.14;97.44
65800;BME280;52544;48.116;11.660;2023-02-26T11:54:25;95320.41;;;0.35;97.81
65800;BME280;52544;48.116;11.660;2023-02-26T11:57:00;95318.16;;;0.62;94.83
65800;BME280;52544;48.116;11.660;2023-02-26T11:59:26;95317.28;;;0.96;92.08
65800;BME280;52544;48.116;11.660;2023-02-26T12:01:54;95320.13;;;1.24;90.85
65800;BME280;52544;48.116;11.660;2023-02-26T12:04:23;95317.38;;;1.28;89.85
65800;BME280;52544;48.116;11.660;2023-02-26T12:06:50;95317.00;;;1.18;91.43
65800;BME280;52544;48.116;11.660;2023-02-26T12:09:17;95323.47;;;1.27;92.75
65800;BME280;52544;48.116;11.660;2023-02-26T12:14:33;95321.84;;;1.08;88.60
65800;BME280;52544;48.116;11.660;2023-02-26T12:17:23;95315.72;;;1.09;86.11
65800;BME280;52544;48.116;11.660;2023-02-26T12:23:05;95329.09;;;1.68;82.67
65800;BME280;52544;48.116;11.660;2023-02-26T12:28:42;95331.44;;;1.88;76.34
65800;BME280;52544;48.116;11.660;2023-02-26T12:40:14;95330.69;;;2.48;76.68
65800;BME280;52544;48.116;11.660;2023-02-26T12:42:54;95326.66;;;2.42;76.08
65800;BME280;52544;48.116;11.660;2023-02-26T12:45:35;95334.78;;;2.68;76.59
65800;BME280;52544;48.116;11.660;2023-02-26T12:51:06;95311.13;;;2.55;69.51
65800;BME280;52544;48.116;11.660;2023-02-26T12:56:48;95308.28;;;2.44;66.46
65800;BME280;52544;48.116;11.660;2023-02-26T13:10:28;95284.97;;;4.38;59.43
65800;BME280;52544;48.116;11.660;2023-02-26T13:15:59;95289.88;;;4.95;57.96
65800;BME280;52544;48.116;11.660;2023-02-26T13:18:35;95294.16;;;4.70;58.33
65800;BME280;52544;48.116;11.660;2023-02-26T13:21:10;95291.09;;;4.24;58.34
65800;BME280;52544;48.116;11.660;2023-02-26T13:23:53;95295.25;;;3.87;61.20
65800;BME280;52544;48.116;11.660;2023-02-26T13:26:20;95299.53;;;3.46;60.03
65800;BME280;52544;48.116;11.660;2023-02-26T13:29:02;95304.47;;;3.51;61.06
65800;BME280;52544;48.116;11.660;2023-02-26T13:31:40;95305.00;;;3.70;63.98
65800;BME280;52544;48.116;11.660;2023-02-26T13:34:45;95311.00;;;3.44;64.24
65800;BME280;52544;48.116;11.660;2023-02-26T13:37:23;95308.09;;;3.06;66.03
65800;BME280;52544;48.116;11.660;2023-02-26T13:40:01;95310.03;;;2.59;67.81
65800;BME280;52544;48.116;11.660;2023-02-26T13:42:53;95317.63;;;2.02;73.61
65800;BME280;52544;48.116;11.660;2023-02-26T13:48:52;95327.22;;;1.38;84.85
65800;BME280;52544;48.116;11.660;2023-02-26T13:51:36;95328.47;;;0.98;89.52
65800;BME280;52544;48.116;11.660;2023-02-26T13:56:54;95320.50;;;0.84;91.59
65800;BME280;52544;48.116;11.660;2023-02-26T13:59:37;95314.25;;;1.53;91.72
65800;BME280;52544;48.116;11.660;2023-02-26T14:04:59;95321.69;;;1.76;83.24
65800;BME280;52544;48.116;11.660;2023-02-26T14:07:45;95329.19;;;1.66;80.29
65800;BME280;52544;48.116;11.660;2023-02-26T14:10:24;95336.16;;;1.82;77.33
65800;BME280;52544;48.116;11.660;2023-02-26T14:13:10;95340.13;;;1.89;77.19
65800;BME280;52544;48.116;11.660;2023-02-26T14:15:53;95335.16;;;1.68;75.82
65800;BME280;52544;48.116;11.660;2023-02-26T14:20:52;95336.16;;;1.17;80.45
65800;BME280;52544;48.116;11.660;2023-02-26T14:23:39;95335.50;;;0.96;83.82
65800;BME280;52544;48.116;11.660;2023-02-26T14:26:11;95332.91;;;0.96;84.75
65800;BME280;52544;48.116;11.660;2023-02-26T14:29:05;95332.28;;;1.08;83.70
65800;BME280;52544;48.116;11.660;2023-02-26T14:34:27;95333.25;;;2.34;77.00
65800;BME280;52544;48.116;11.660;2023-02-26T14:36:57;95358.25;;;2.98;73.58
65800;BME280;52544;48.116;11.660;2023-02-26T14:39:37;95358.25;;;2.98;74.27
65800;BME280;52544;48.116;11.660;2023-02-26T14:42:11;95355.72;;;2.36;78.86
65800;BME280;52544;48.116;11.660;2023-02-26T14:44:44;95374.56;;;1.80;83.29
65800;BME280;52544;48.116;11.660;2023-02-26T14:47:11;95371.94;;;1.31;86.25
65800;BME280;52544;48.116;11.660;2023-02-26T14:49:45;95371.16;;;0.78;90.07